sensor_id;sensor_type;location;lat;lon;timestamp;pressure;altitude;pressure_sealevel;temperature;humidity
45813;BME280;31519;45.408;10.962;2023-07-20T00:02:16;100092.84;;;28.71;79.95
45813;BME280;31519;45.408;10.962;2023-07-20T00:04:45;100120.25;;;28.71;80.71
45813;BME280;31519;45.408;10.962;2023-07-20T00:07:13;100149.78;;;28.50;82.26
45813;BME280;31519;45.408;10.962;2023-07-20T00:09:41;100197.28;;;27.50;87.77
45813;BME280;31519;45.408;10.962;2023-07-20T00:12:09;100239.47;;;25.54;100.00
45813;BME280;31519;45.408;10.962;2023-07-20T00:14:37;100269.91;;;24.81;100.00
45813;BME280;31519;45.408;10.962;2023-07-20T00:17:05;100242.16;;;25.27;100.00
45813;BME280;31519;45.408;10.962;2023-07-20T00:19:33;100211.25;;;25.07;100.00
45813;BME280;31519;45.408;10.962;2023-07-20T00:22:03;100185.47;;;25.15;100.00
45813;BME280;31519;45.408;10.962;2023-07-20T00:24:32;100170.59;;;25.73;100.00
45813;BME280;31519;45.408;10.962;2023-07-20T00:27:00;100137.16;;;26.75;99.54
45813;BME280;31519;45.408;10.962;2023-07-20T00:29:30;100139.53;;;27.28;96.97
45813;BME280;31519;45.408;10.962;2023-07-20T00:31:58;100184.06;;;26.93;94.55
45813;BME280;31519;45.408;10.962;2023-07-20T00:34:26;100281.59;;;26.07;98.69
45813;BME280;31519;45.408;10.962;2023-07-20T00:36:54;100321.44;;;25.40;100.00
45813;BME280;31519;45.408;10.962;2023-07-20T00:39:22;100316.72;;;25.44;100.00
45813;BME280;31519;45.408;10.962;2023-07-20T00:41:52;100304.50;;;25.86;100.00
45813;BME280;31519;45.408;10.962;2023-07-20T00:44:19;100298.72;;;25.50;100.00
45813;BME280;31519;45.408;10.962;2023-07-20T00:46:48;100272.84;;;25.65;99.65
45813;BME280;31519;45.408;10.962;2023-07-20T00:49:16;100213.41;;;25.23;100.00
45813;BME280;31519;45.408;10.962;2023-07-20T00:51:44;100205.38;;;26.39;98.68
45813;BME280;31519;45.408;10.962;2023-07-20T00:54:12;100213.94;;;27.20;93.11
45813;BME280;31519;45.408;10.962;2023-07-20T00:56:40;100205.75;;;27.56;93.23
45813;BME280;31519;45.408;10.962;2023-07-20T00:59:08;100192.34;;;27.61;91.01
45813;BME280;31519;45.408;10.962;2023-07-20T01:01:36;100178.25;;;27.43;91.42
45813;BME280;31519;45.408;10.962;2023-07-20T01:04:04;100190.69;;;27.64;90.26
45813;BME280;31519;45.408;10.962;2023-07-20T01:06:36;100210.13;;;27.86;89.05
45813;BME280;31519;45.408;10.962;2023-07-20T01:11:47;100230.53;;;27.49;90.63
45813;BME280;31519;45.408;10.962;2023-07-20T01:14:18;100217.88;;;27.55;92.06
45813;BME280;31519;45.408;10.962;2023-07-20T01:16:47;100206.88;;;27.91;92.86
45813;BME280;31519;45.408;10.962;2023-07-20T01:19:17;100205.59;;;27.95;93.84
45813;BME280;31519;45.408;10.962;2023-07-20T01:27:11;100205.59;;;28.11;87.67
45813;BME280;31519;45.408;10.962;2023-07-20T01:32:14;100175.66;;;27.72;89.16
45813;BME280;31519;45.408;10.962;2023-07-20T01:34:44;100152.75;;;27.66;92.31
45813;BME280;31519;45.408;10.962;2023-07-20T01:37:15;100156.38;;;28.08;89.91
45813;BME280;31519;45.408;10.962;2023-07-20T01:39:44;100163.25;;;27.84;90.20
45813;BME280;31519;45.408;10.962;2023-07-20T01:42:12;100173.75;;;27.69;91.50
45813;BME280;31519;45.408;10.962;2023-07-20T01:44:40;100179.88;;;27.05;94.42
45813;BME280;31519;45.408;10.962;2023-07-20T01:47:08;100184.88;;;26.70;96.83
45813;BME280;31519;45.408;10.962;2023-07-20T01:49:36;100195.53;;;25.75;100.00
45813;BME280;31519;45.408;10.962;2023-07-20T01:52:04;100190.34;;;26.04;100.00
45813;BME280;31519;45.408;10.962;2023-07-20T01:54:32;100178.19;;;26.95;99.15
45813;BME280;31519;45.408;10.962;2023-07-20T01:57:00;100181.72;;;27.11;95.24
45813;BME280;31519;45.408;10.962;2023-07-20T01:59:27;100189.94;;;26.92;95.21
45813;BME280;31519;45.408;10.962;2023-07-20T02:01:56;100174.72;;;26.51;96.95
45813;BME280;31519;45.408;10.962;2023-07-20T02:04:24;100148.16;;;26.09;100.00
45813;BME280;31519;45.408;10.962;2023-07-20T02:06:52;100144.44;;;25.99;100.00
45813;BME280;31519;45.408;10.962;2023-07-20T02:09:19;100168.03;;;25.36;100.00
45813;BME280;31519;45.408;10.962;2023-07-20T02:11:48;100180.91;;;24.71;100.00
45813;BME280;31519;45.408;10.962;2023-07-20T02:14:15;100160.75;;;24.99;100.00
45813;BME280;31519;45.408;10.962;2023-07-20T02:16:44;100148.75;;;24.25;100.00
45813;BME280;31519;45.408;10.962;2023-07-20T02:19:14;100130.34;;;24.70;100.00
45813;BME280;31519;45.408;10.962;2023-07-20T02:21:42;100131.09;;;24.70;100.00
45813;BME280;31519;45.408;10.962;2023-07-20T02:24:10;100129.47;;;25.07;100.00
45813;BME280;31519;45.408;10.962;2023-07-20T02:26:38;100112.25;;;25.40;99.53
45813;BME280;31519;45.408;10.962;2023-07-20T02:29:06;100091.91;;;25.45;96.47
45813;BME280;31519;45.408;10.962;2023-07-20T02:31:36;100088.81;;;26.13;93.54
45813;BME280;31519;45.408;10.962;2023-07-20T02:34:05;100091.50;;;26.16;91.94
45813;BME280;31519;45.408;10.962;2023-07-20T02:36:34;100088.28;;;26.41;92.93
45813;BME280;31519;45.408;10.962;2023-07-20T02:39:02;100076.47;;;26.48;93.51
45813;BME280;31519;45.408;10.962;2023-07-20T02:41:32;100074.16;;;26.82;92.13
45813;BME280;31519;45.408;10.962;2023-07-20T02:44:00;100068.53;;;27.57;87.91
45813;BME280;31519;45.408;10.962;2023-07-20T02:46:29;100072.16;;;27.18;89.10
45813;BME280;31519;45.408;10.962;2023-07-20T02:48:58;100077.94;;;26.88;89.75
45813;BME280;31519;45.408;10.962;2023-07-20T02:51:26;100069.53;;;27.15;88.82
45813;BME280;31519;45.408;10.962;2023-07-20T02:53:54;100061.31;;;26.99;89.25
45813;BME280;31519;45.408;10.962;2023-07-20T02:56:22;100055.00;;;26.82;89.53
45813;BME280;31519;45.408;10.962;2023-07-20T02:58:50;100061.16;;;27.06;89.56
45813;BME280;31519;45.408;10.962;2023-07-20T03:01:18;100065.94;;;26.66;91.26
45813;BME280;31519;45.408;10.962;2023-07-20T03:03:46;100087.47;;;26.24;94.80
45813;BME280;31519;45.408;10.962;2023-07-20T03:06:16;100082.53;;;26.55;93.93
45813;BME280;31519;45.408;10.962;2023-07-20T03:08:44;100092.41;;;26.88;92.34
45813;BME280;31519;45.408;10.962;2023-07-20T03:11:16;100099.16;;;27.00;90.45
45813;BME280;31519;45.408;10.962;2023-07-20T03:13:44;100105.47;;;26.18;94.35
45813;BME280;31519;45.408;10.962;2023-07-20T03:16:14;100110.72;;;26.09;94.58
45813;BME280;31519;45.408;10.962;2023-07-20T03:18:42;100107.00;;;25.99;95.41
45813;BME280;31519;45.408;10.962;2023-07-20T03:21:11;100098.78;;;26.23;94.83
45813;BME280;31519;45.408;10.962;2023-07-20T03:23:39;100100.38;;;26.20;94.99
45813;BME280;31519;45.408;10.962;2023-07-20T03:26:08;100094.03;;;25.84;96.21
45813;BME280;31519;45.408;10.962;2023-07-20T03:28:36;100087.28;;;25.69;97.84
45813;BME280;31519;45.408;10.962;2023-07-20T03:31:05;100089.16;;;26.15;96.72
45813;BME280;31519;45.408;10.962;2023-07-20T03:33:38;100095.00;;;26.17;95.32
45813;BME280;31519;45.408;10.962;2023-07-20T03:36:06;100087.94;;;26.39;93.34
45813;BME280;31519;45.408;10.962;2023-07-20T03:38:34;100080.78;;;26.65;92.55
45813;BME280;31519;45.408;10.962;2023-07-20T03:41:02;100076.19;;;26.78;90.92
45813;BME280;31519;45.408;10.962;2023-07-20T03:43:30;100075.63;;;26.86;91.20
45813;BME280;31519;45.408;10.962;2023-07-20T03:45:58;100070.97;;;27.03;91.01
45813;BME280;31519;45.408;10.962;2023-07-20T03:48:26;100083.22;;;27.31;89.57
45813;BME280;31519;45.408;10.962;2023-07-20T03:50:54;100081.28;;;26.96;91.33
45813;BME280;31519;45.408;10.962;2023-07-20T03:53:23;100082.94;;;27.09;91.34
45813;BME280;31519;45.408;10.962;2023-07-20T03:55:52;100083.59;;;26.97;91.05
45813;BME280;31519;45.408;10.962;2023-07-20T03:58:20;100085.84;;;26.82;92.48
45813;BME280;31519;45.408;10.962;2023-07-20T04:00:50;100080.94;;;26.58;94.05
45813;BME280;31519;45.408;10.962;2023-07-20T04:03:19;100085.84;;;26.82;93.42
45813;BME280;31519;45.408;10.962;2023-07-20T04:05:47;100085.06;;;26.85;93.10
45813;BME280;31519;45.408;10.962;2023-07-20T04:08:15;100089.03;;;26.81;93.91
45813;BME280;31519;45.408;10.962;2023-07-20T04:10:43;100094.22;;;27.11;91.96
45813;BME280;31519;45.408;10.962;2023-07-20T04:13:12;100089.75;;;27.01;92.68
45813;BME280;31519;45.408;10.962;2023-07-20T04:15:40;100082.88;;;27.29;90.79
45813;BME280;31519;45.408;10.962;2023-07-20T04:18:08;100081.31;;;27.12;91.77
45813;BME280;31519;45.408;10.962;2023-07-20T04:20:36;100089.94;;;27.10;91.63
45813;BME280;31519;45.408;10.962;2023-07-20T04:23:04;100080.63;;;27.24;90.75
45813;BME280;31519;45.408;10.962;2023-07-20T04:25:32;100081.81;;;27.23;91.84
45813;BME280;31519;45.408;10.962;2023-07-20T04:28:09;100086.03;;;27.44;89.25
45813;BME280;31519;45.408;10.962;2023-07-20T04:30:42;100089.88;;;27.30;91.17
45813;BME280;31519;45.408;10.962;2023-07-20T04:33:10;100094.03;;;27.18;92.12
45813;BME280;31519;45.408;10.962;2023-07-20T04:35:45;100090.25;;;27.48;90.72
45813;BME280;31519;45.408;10.962;2023-07-20T04:38:17;100099.19;;;27.65;89.57
45813;BME280;31519;45.408;10.962;2023-07-20T04:40:49;100102.97;;;27.71;89.16
45813;BME280;31519;45.408;10.962;2023-07-20T04:43:17;100097.22;;;27.82;88.65
45813;BME280;31519;45.408;10.962;2023-07-20T04:45:46;100094.59;;;28.07;86.65
45813;BME280;31519;45.408;10.962;2023-07-20T04:48:15;100103.75;;;28.16;85.76
45813;BME280;31519;45.408;10.962;2023-07-20T04:50:50;100106.50;;;28.16;86.00
45813;BME280;31519;45.408;10.962;2023-07-20T04:53:18;100102.72;;;28.10;86.06
45813;BME280;31519;45.408;10.962;2023-07-20T04:55:47;100109.81;;;27.63;87.81
45813;BME280;31519;45.408;10.962;2023-07-20T04:58:20;100101.56;;;27.79;87.94
45813;BME280;31519;45.408;10.962;2023-07-20T05:00:50;100098.69;;;27.70;86.52
45813;BME280;31519;45.408;10.962;2023-07-20T05:03:18;100107.75;;;27.34;89.60
45813;BME280;31519;45.408;10.962;2023-07-20T05:05:46;100120.44;;;26.53;95.28
45813;BME280;31519;45.408;10.962;2023-07-20T05:08:16;100107.34;;;27.00;93.28
45813;BME280;31519;45.408;10.962;2023-07-20T05:10:45;100110.50;;;27.67;89.01
45813;BME280;31519;45.408;10.962;2023-07-20T05:13:13;100102.69;;;27.82;88.41
45813;BME280;31519;45.408;10.962;2023-07-20T05:15:41;100104.63;;;28.13;85.95
45813;BME280;31519;45.408;10.962;2023-07-20T05:18:13;100096.81;;;28.41;85.31
45813;BME280;31519;45.408;10.962;2023-07-20T05:20:48;100100.78;;;28.65;83.51
45813;BME280;31519;45.408;10.962;2023-07-20T05:23:17;100099.63;;;28.79;82.82
45813;BME280;31519;45.408;10.962;2023-07-20T05:25:46;100094.66;;;27.91;86.00
45813;BME280;31519;45.408;10.962;2023-07-20T05:28:14;100100.69;;;27.53;91.95
45813;BME280;31519;45.408;10.962;2023-07-20T05:30:42;100096.34;;;27.36;93.29
45813;BME280;31519;45.408;10.962;2023-07-20T05:33:10;100097.25;;;27.49;92.02
45813;BME280;31519;45.408;10.962;2023-07-20T05:35:39;100112.31;;;27.05;93.40
45813;BME280;31519;45.408;10.962;2023-07-20T05:38:07;100112.09;;;27.16;93.74
45813;BME280;31519;45.408;10.962;2023-07-20T05:40:42;100109.66;;;27.54;88.41
45813;BME280;31519;45.408;10.962;2023-07-20T05:43:10;100113.66;;;27.82;86.26
45813;BME280;31519;45.408;10.962;2023-07-20T05:45:41;100110.19;;;27.94;87.44
45813;BME280;31519;45.408;10.962;2023-07-20T05:48:09;100114.91;;;27.93;86.69
45813;BME280;31519;45.408;10.962;2023-07-20T05:50:43;100122.03;;;27.74;84.38
45813;BME280;31519;45.408;10.962;2023-07-20T05:53:11;100128.03;;;27.53;85.94
45813;BME280;31519;45.408;10.962;2023-07-20T05:55:40;100128.81;;;28.15;84.88
45813;BME280;31519;45.408;10.962;2023-07-20T05:58:08;100122.84;;;28.04;84.05
45813;BME280;31519;45.408;10.962;2023-07-20T06:00:36;100126.09;;;28.15;83.23
45813;BME280;31519;45.408;10.962;2023-07-20T06:03:04;100126.97;;;27.80;85.84
45813;BME280;31519;45.408;10.962;2023-07-20T06:05:32;100132.34;;;28.57;82.47
45813;BME280;31519;45.408;10.962;2023-07-20T06:08:00;100122.28;;;27.64;88.35
45813;BME280;31519;45.408;10.962;2023-07-20T06:10:29;100121.19;;;27.45;90.98
45813;BME280;31519;45.408;10.962;2023-07-20T06:12:57;100125.31;;;27.53;89.20
45813;BME280;31519;45.408;10.962;2023-07-20T06:15:26;100122.59;;;27.98;89.25
45813;BME280;31519;45.408;10.962;2023-07-20T06:17:54;100132.25;;;27.87;87.79
45813;BME280;31519;45.408;10.962;2023-07-20T06:20:24;100134.47;;;28.08;87.03
45813;BME280;31519;45.408;10.962;2023-07-20T06:22:52;100130.88;;;28.69;82.55
45813;BME280;31519;45.408;10.962;2023-07-20T06:25:20;100133.69;;;28.07;86.82
45813;BME280;31519;45.408;10.962;2023-07-20T06:27:49;100137.66;;;28.64;84.87
45813;BME280;31519;45.408;10.962;2023-07-20T06:30:17;100138.50;;;29.40;82.02
45813;BME280;31519;45.408;10.962;2023-07-20T06:32:45;100140.25;;;30.07;77.17
45813;BME280;31519;45.408;10.962;2023-07-20T06:35:13;100134.94;;;30.12;75.52
45813;BME280;31519;45.408;10.962;2023-07-20T06:37:42;100141.09;;;30.81;71.57
45813;BME280;31519;45.408;10.962;2023-07-20T06:40:10;100142.84;;;30.97;70.40
45813;BME280;31519;45.408;10.962;2023-07-20T06:42:41;100137.66;;;30.68;68.66
45813;BME280;31519;45.408;10.962;2023-07-20T06:45:11;100143.28;;;31.27;67.70
45813;BME280;31519;45.408;10.962;2023-07-20T06:47:40;100139.69;;;30.77;68.51
45813;BME280;31519;45.408;10.962;2023-07-20T06:50:08;100144.88;;;30.53;69.65
45813;BME280;31519;45.408;10.962;2023-07-20T06:52:37;100141.09;;;30.81;67.73
45813;BME280;31519;45.408;10.962;2023-07-20T06:55:05;100147.34;;;31.04;67.12
45813;BME280;31519;45.408;10.962;2023-07-20T06:57:34;100154.47;;;31.32;66.23
45813;BME280;31519;45.408;10.962;2023-07-20T07:00:01;100151.63;;;30.39;69.10
45813;BME280;31519;45.408;10.962;2023-07-20T07:02:31;100154.22;;;30.34;67.26
45813;BME280;31519;45.408;10.962;2023-07-20T07:04:59;100153.50;;;29.74;73.52
45813;BME280;31519;45.408;10.962;2023-07-20T07:07:45;100160.88;;;29.26;76.64
45813;BME280;31519;45.408;10.962;2023-07-20T07:10:13;100170.59;;;28.77;79.56
45813;BME280;31519;45.408;10.962;2023-07-20T07:12:41;100168.50;;;28.81;77.80
45813;BME280;31519;45.408;10.962;2023-07-20T07:15:09;100167.34;;;29.58;74.08
45813;BME280;31519;45.408;10.962;2023-07-20T07:17:38;100168.34;;;29.38;72.55
45813;BME280;31519;45.408;10.962;2023-07-20T07:20:06;100171.75;;;29.17;77.19
45813;BME280;31519;45.408;10.962;2023-07-20T07:22:39;100174.25;;;29.12;79.28
45813;BME280;31519;45.408;10.962;2023-07-20T07:25:13;100176.41;;;30.05;76.38
45813;BME280;31519;45.408;10.962;2023-07-20T07:27:45;100172.47;;;30.06;73.11
45813;BME280;31519;45.408;10.962;2023-07-20T07:30:13;100173.16;;;29.72;77.05
45813;BME280;31519;45.408;10.962;2023-07-20T07:32:42;100176.97;;;30.00;74.39
45813;BME280;31519;45.408;10.962;2023-07-20T07:35:09;100174.09;;;30.38;71.65
45813;BME280;31519;45.408;10.962;2023-07-20T07:37:37;100183.72;;;29.48;74.09
45813;BME280;31519;45.408;10.962;2023-07-20T07:40:25;100180.88;;;29.65;70.80
45813;BME280;31519;45.408;10.962;2023-07-20T07:42:53;100181.06;;;29.83;69.66
45813;BME280;31519;45.408;10.962;2023-07-20T07:45:21;100179.16;;;30.05;71.45
45813;BME280;31519;45.408;10.962;2023-07-20T07:47:49;100186.88;;;30.32;72.71
45813;BME280;31519;45.408;10.962;2023-07-20T07:50:17;100180.53;;;30.44;70.74
45813;BME280;31519;45.408;10.962;2023-07-20T07:52:45;100187.16;;;30.12;71.09
45813;BME280;31519;45.408;10.962;2023-07-20T07:55:12;100190.13;;;30.39;69.49
45813;BME280;31519;45.408;10.962;2023-07-20T07:57:40;100181.75;;;29.49;72.09
45813;BME280;31519;45.408;10.962;2023-07-20T08:00:08;100189.59;;;30.32;70.15
45813;BME280;31519;45.408;10.962;2023-07-20T08:02:43;100193.59;;;30.53;70.03
45813;BME280;31519;45.408;10.962;2023-07-20T08:05:10;100198.84;;;30.81;67.19
45813;BME280;31519;45.408;10.962;2023-07-20T08:07:38;100192.13;;;31.04;65.85
45813;BME280;31519;45.408;10.962;2023-07-20T08:10:06;100196.09;;;30.81;64.89
45813;BME280;31519;45.408;10.962;2023-07-20T08:12:35;100199.34;;;30.89;61.72
45813;BME280;31519;45.408;10.962;2023-07-20T08:15:03;100204.00;;;31.63;59.03
45813;BME280;31519;45.408;10.962;2023-07-20T08:17:31;100206.75;;;31.23;57.68
45813;BME280;31519;45.408;10.962;2023-07-20T08:20:00;100201.06;;;30.96;59.31
45813;BME280;31519;45.408;10.962;2023-07-20T08:22:28;100199.63;;;31.93;58.74
45813;BME280;31519;45.408;10.962;2023-07-20T08:24:56;100194.81;;;31.57;62.24
45813;BME280;31519;45.408;10.962;2023-07-20T08:27:24;100196.47;;;30.93;58.83
45813;BME280;31519;45.408;10.962;2023-07-20T08:29:52;100194.63;;;30.68;58.51
45813;BME280;31519;45.408;10.962;2023-07-20T08:32:20;100193.66;;;30.62;57.09
45813;BME280;31519;45.408;10.962;2023-07-20T08:34:48;100201.97;;;30.93;57.45
45813;BME280;31519;45.408;10.962;2023-07-20T08:37:16;100206.97;;;31.38;56.48
45813;BME280;31519;45.408;10.962;2023-07-20T08:39:43;100190.78;;;31.98;54.59
45813;BME280;31519;45.408;10.962;2023-07-20T08:42:12;100200.91;;;32.37;53.39
45813;BME280;31519;45.408;10.962;2023-07-20T08:44:42;100204.56;;;32.07;52.98
45813;BME280;31519;45.408;10.962;2023-07-20T08:47:10;100205.25;;;31.62;54.78
45813;BME280;31519;45.408;10.962;2023-07-20T08:49:39;100207.47;;;31.14;55.95
45813;BME280;31519;45.408;10.962;2023-07-20T08:52:08;100201.47;;;32.05;55.46
45813;BME280;31519;45.408;10.962;2023-07-20T08:54:37;100190.00;;;31.88;52.86
45813;BME280;31519;45.408;10.962;2023-07-20T08:57:06;100208.03;;;31.80;54.87
45813;BME280;31519;45.408;10.962;2023-07-20T08:59:35;100206.34;;;31.74;53.82
45813;BME280;31519;45.408;10.962;2023-07-20T09:02:04;100213.34;;;31.65;54.28
45813;BME280;31519;45.408;10.962;2023-07-20T09:04:33;100212.88;;;31.67;55.46
45813;BME280;31519;45.408;10.962;2023-07-20T09:07:01;100216.44;;;31.86;55.57
45813;BME280;31519;45.408;10.962;2023-07-20T09:09:29;100200.41;;;31.84;55.04
45813;BME280;31519;45.408;10.962;2023-07-20T09:11:57;100209.06;;;31.64;54.58
45813;BME280;31519;45.408;10.962;2023-07-20T09:14:24;100201.88;;;31.67;53.92
45813;BME280;31519;45.408;10.962;2023-07-20T09:16:54;100197.09;;;32.35;52.81
45813;BME280;31519;45.408;10.962;2023-07-20T09:19:22;100200.47;;;33.26;50.65
45813;BME280;31519;45.408;10.962;2023-07-20T09:21:51;100198.56;;;33.00;49.70
45813;BME280;31519;45.408;10.962;2023-07-20T09:24:19;100193.94;;;32.96;49.89
45813;BME280;31519;45.408;10.962;2023-07-20T09:26:48;100192.78;;;32.79;50.36
45813;BME280;31519;45.408;10.962;2023-07-20T09:29:18;100192.75;;;32.88;50.52
45813;BME280;31519;45.408;10.962;2023-07-20T09:32:02;100193.72;;;32.13;51.26
45813;BME280;31519;45.408;10.962;2023-07-20T09:34:30;100182.38;;;32.29;51.18
45813;BME280;31519;45.408;10.962;2023-07-20T09:37:02;100191.22;;;32.87;50.53
45813;BME280;31519;45.408;10.962;2023-07-20T09:39:32;100177.63;;;33.26;49.03
45813;BME280;31519;45.408;10.962;2023-07-20T09:42:00;100189.41;;;33.35;49.55
45813;BME280;31519;45.408;10.962;2023-07-20T09:44:32;100190.59;;;32.83;50.43
45813;BME280;31519;45.408;10.962;2023-07-20T09:47:04;100184.81;;;32.72;50.96
45813;BME280;31519;45.408;10.962;2023-07-20T09:49:32;100187.00;;;33.10;50.42
45813;BME280;31519;45.408;10.962;2023-07-20T09:52:03;100189.38;;;33.92;46.28
45813;BME280;31519;45.408;10.962;2023-07-20T09:54:31;100187.25;;;33.63;45.00
45813;BME280;31519;45.408;10.962;2023-07-20T09:57:00;100188.03;;;33.64;43.45
45813;BME280;31519;45.408;10.962;2023-07-20T09:59:30;100184.09;;;34.27;43.33
45813;BME280;31519;45.408;10.962;2023-07-20T10:01:58;100192.50;;;34.47;43.80
45813;BME280;31519;45.408;10.962;2023-07-20T10:04:26;100186.41;;;34.58;43.69
45813;BME280;31519;45.408;10.962;2023-07-20T10:06:56;100183.25;;;35.09;43.00
45813;BME280;31519;45.408;10.962;2023-07-20T10:09:26;100184.59;;;35.13;42.96
45813;BME280;31519;45.408;10.962;2023-07-20T10:11:56;100180.63;;;33.94;45.71
45813;BME280;31519;45.408;10.962;2023-07-20T10:14:44;100179.81;;;33.78;46.09
45813;BME280;31519;45.408;10.962;2023-07-20T10:17:16;100180.13;;;33.48;46.40
45813;BME280;31519;45.408;10.962;2023-07-20T10:19:49;100182.31;;;32.92;46.43
45813;BME280;31519;45.408;10.962;2023-07-20T10:22:24;100181.97;;;33.18;48.02
45813;BME280;31519;45.408;10.962;2023-07-20T10:24:54;100178.16;;;33.72;46.70
45813;BME280;31519;45.408;10.962;2023-07-20T10:27:22;100174.84;;;34.45;45.26
45813;BME280;31519;45.408;10.962;2023-07-20T10:29:52;100173.72;;;33.65;47.16
45813;BME280;31519;45.408;10.962;2023-07-20T10:32:22;100175.94;;;33.85;47.65
45813;BME280;31519;45.408;10.962;2023-07-20T10:34:51;100169.16;;;33.29;48.20
45813;BME280;31519;45.408;10.962;2023-07-20T10:38:05;100165.19;;;33.30;46.92
45813;BME280;31519;45.408;10.962;2023-07-20T10:42:57;100172.56;;;33.57;45.34
45813;BME280;31519;45.408;10.962;2023-07-20T10:48:20;100166.44;;;35.12;42.39
45813;BME280;31519;45.408;10.962;2023-07-20T10:53:35;100158.09;;;34.92;42.70
45813;BME280;31519;45.408;10.962;2023-07-20T10:56:07;100158.66;;;35.46;41.73
45813;BME280;31519;45.408;10.962;2023-07-20T10:58:35;100157.69;;;34.99;40.56
45813;BME280;31519;45.408;10.962;2023-07-20T11:01:04;100150.59;;;35.28;40.95
45813;BME280;31519;45.408;10.962;2023-07-20T11:03:35;100148.41;;;35.17;41.28
45813;BME280;31519;45.408;10.962;2023-07-20T11:08:55;100153.41;;;34.54;42.43
45813;BME280;31519;45.408;10.962;2023-07-20T11:11:23;100140.03;;;34.23;41.50
45813;BME280;31519;45.408;10.962;2023-07-20T11:13:59;100145.00;;;34.93;41.04
45813;BME280;31519;45.408;10.962;2023-07-20T11:16:34;100145.38;;;36.11;40.37
45813;BME280;31519;45.408;10.962;2023-07-20T11:19:03;100152.81;;;36.19;39.13
45813;BME280;31519;45.408;10.962;2023-07-20T11:21:37;100144.94;;;34.87;39.60
45813;BME280;31519;45.408;10.962;2023-07-20T11:24:19;100136.34;;;35.70;38.59
45813;BME280;31519;45.408;10.962;2023-07-20T11:26:51;100119.34;;;36.28;37.92
45813;BME280;31519;45.408;10.962;2023-07-20T11:29:21;100124.75;;;37.00;37.96
45813;BME280;31519;45.408;10.962;2023-07-20T11:31:58;100120.03;;;36.49;37.41
45813;BME280;31519;45.408;10.962;2023-07-20T11:34:30;100117.44;;;35.53;38.60
45813;BME280;31519;45.408;10.962;2023-07-20T11:36:58;100113.16;;;34.68;39.27
45813;BME280;31519;45.408;10.962;2023-07-20T11:39:29;100119.03;;;35.40;39.80
45813;BME280;31519;45.408;10.962;2023-07-20T11:41:57;100109.72;;;36.04;38.91
45813;BME280;31519;45.408;10.962;2023-07-20T11:44:28;100117.38;;;35.48;39.46
45813;BME280;31519;45.408;10.962;2023-07-20T11:47:00;100117.22;;;35.57;39.23
45813;BME280;31519;45.408;10.962;2023-07-20T11:49:34;100108.16;;;35.97;38.70
45813;BME280;31519;45.408;10.962;2023-07-20T11:52:02;100100.84;;;36.46;37.90
45813;BME280;31519;45.408;10.962;2023-07-20T11:54:30;100097.56;;;36.16;38.15
45813;BME280;31519;45.408;10.962;2023-07-20T11:57:00;100101.91;;;35.62;37.88
45813;BME280;31519;45.408;10.962;2023-07-20T11:59:28;100101.91;;;35.21;38.65
45813;BME280;31519;45.408;10.962;2023-07-20T12:01:56;100094.16;;;36.06;37.00
45813;BME280;31519;45.408;10.962;2023-07-20T12:04:24;100096.88;;;35.60;38.50
45813;BME280;31519;45.408;10.962;2023-07-20T12:06:53;100090.38;;;36.09;37.96
45813;BME280;31519;45.408;10.962;2023-07-20T12:09:21;100091.50;;;36.43;36.93
45813;BME280;31519;45.408;10.962;2023-07-20T12:11:49;100087.31;;;36.84;36.84
45813;BME280;31519;45.408;10.962;2023-07-20T12:14:18;100077.75;;;36.91;36.99
45813;BME280;31519;45.408;10.962;2023-07-20T12:16:51;100070.44;;;37.42;35.77
45813;BME280;31519;45.408;10.962;2023-07-20T12:19:20;100076.81;;;36.11;37.24
45813;BME280;31519;45.408;10.962;2023-07-20T12:21:48;100077.00;;;35.82;38.26
45813;BME280;31519;45.408;10.962;2023-07-20T12:24:17;100068.25;;;35.89;38.69
45813;BME280;31519;45.408;10.962;2023-07-20T12:26:45;100072.59;;;35.70;37.95
45813;BME280;31519;45.408;10.962;2023-07-20T12:29:13;100062.13;;;36.05;38.99
45813;BME280;31519;45.408;10.962;2023-07-20T12:36:05;100065.28;;;35.92;39.41
45813;BME280;31519;45.408;10.962;2023-07-20T12:38:34;100068.28;;;35.28;40.25
45813;BME280;31519;45.408;10.962;2023-07-20T12:41:01;100055.72;;;36.51;38.68
45813;BME280;31519;45.408;10.962;2023-07-20T12:43:31;100058.75;;;36.47;39.10
45813;BME280;31519;45.408;10.962;2023-07-20T12:45:59;100056.78;;;36.90;38.64
45813;BME280;31519;45.408;10.962;2023-07-20T12:48:27;100052.03;;;36.08;39.10
45813;BME280;31519;45.408;10.962;2023-07-20T12:50:55;100049.13;;;35.91;38.97
45813;BME280;31519;45.408;10.962;2023-07-20T12:53:23;100062.94;;;35.45;40.90
45813;BME280;31519;45.408;10.962;2023-07-20T12:55:51;100042.34;;;36.18;40.10
45813;BME280;31519;45.408;10.962;2023-07-20T12:58:19;100046.94;;;36.00;39.60
45813;BME280;31519;45.408;10.962;2023-07-20T13:00:46;100042.38;;;35.72;41.35
45813;BME280;31519;45.408;10.962;2023-07-20T13:03:14;100039.88;;;35.53;41.94
45813;BME280;31519;45.408;10.962;2023-07-20T13:05:56;100044.47;;;36.97;37.88
45813;BME280;31519;45.408;10.962;2023-07-20T13:08:28;100045.53;;;36.68;39.23
45813;BME280;31519;45.408;10.962;2023-07-20T13:10:56;100039.06;;;35.93;41.42
45813;BME280;31519;45.408;10.962;2023-07-20T13:13:25;100039.88;;;35.53;43.60
45813;BME280;31519;45.408;10.962;2023-07-20T13:15:53;100037.44;;;34.51;44.67
45813;BME280;31519;45.408;10.962;2023-07-20T13:18:22;100027.41;;;35.64;43.54